Aviation Digital Data Service (ADDS)

Output produced by METARs form (1721 UTC 24 June 2019)
found at http://www.aviationweather.gov/metar/data/
 
Forecast for: AMD
Text: TAF AMD ETNS 241518Z 2414/2423 07012KT 9999 NSW BKN300 CANCEL 1520Z BY ETGL
Forecast period: 1400 to 2300 UTC 24 June 2019
Forecast type: FROM: standard forecast or significant change
Winds: from the ENE (70 degrees) at 14 MPH (12 knots; 6.2 m/s)
Visibility: 6 or more miles 10+ km)
Ceiling: 30000 feet AGL
Clouds: broken clouds at 30000 feet AGL
Weather: NSW  (no significant weather)